Time;durP1;ratioP1;P1;durP2;ratioP2;P2;SDS_P1;SDS_P2;PMS_P1;PMS_P2;Temp;Humidity;BMP_temperature;BMP_pressure;BME280_temperature;BME280_humidity;BME280_pressure;Samples;Min_cycle;Max_cycle;Signal;HPM_P1;HPM_P2
2023/06/06 00:00:44;;;;;;;11.20;7.82;;;12.80;99.90;;;;;;5083450;28;20047;-71
2023/06/06 00:03:10;;;;;;;11.70;8.25;;;12.80;99.90;;;;;;5079462;28;20611;-70
2023/06/06 00:05:36;;;;;;;11.73;8.50;;;12.70;99.90;;;;;;5078897;28;20044;-70
2023/06/06 00:08:01;;;;;;;12.05;8.93;;;12.70;99.90;;;;;;5091257;28;20040;-71
2023/06/06 00:10:27;;;;;;;11.70;8.27;;;12.70;99.90;;;;;;5065000;28;20044;-70
2023/06/06 00:12:53;;;;;;;12.93;8.38;;;12.70;99.90;;;;;;5093056;28;20090;-71
2023/06/06 00:15:19;;;;;;;11.95;8.80;;;12.60;99.90;;;;;;5088345;28;20509;-71
2023/06/06 00:17:48;;;;;;;12.43;8.20;;;12.60;99.90;;;;;;5067181;28;20043;-70
2023/06/06 00:20:14;;;;;;;12.93;8.40;;;12.50;99.90;;;;;;5065476;28;20058;-70
2023/06/06 00:22:41;;;;;;;11.35;8.60;;;12.50;99.90;;;;;;5059736;28;20045;-70
2023/06/06 00:25:07;;;;;;;13.20;8.70;;;12.40;99.90;;;;;;5088683;28;20095;-70
2023/06/06 00:27:34;;;;;;;11.23;8.00;;;12.40;99.90;;;;;;5093579;28;20415;-70
2023/06/06 00:30:00;;;;;;;12.82;8.80;;;12.30;99.90;;;;;;5073015;28;20039;-72
2023/06/06 00:32:26;;;;;;;13.50;8.77;;;12.20;99.90;;;;;;5077907;28;20043;-72
2023/06/06 00:34:54;;;;;;;11.20;8.70;;;12.20;99.90;;;;;;5084165;28;20048;-71
2023/06/06 00:37:20;;;;;;;13.13;9.48;;;12.20;99.90;;;;;;5074250;28;20184;-71
2023/06/06 00:39:45;;;;;;;13.45;9.20;;;12.10;99.90;;;;;;5069254;28;20162;-71
2023/06/06 00:42:11;;;;;;;13.07;9.52;;;12.10;99.90;;;;;;5095663;28;20104;-72
2023/06/06 00:44:37;;;;;;;14.88;9.77;;;12.10;99.90;;;;;;5093626;28;20038;-71
2023/06/06 00:47:03;;;;;;;12.60;9.30;;;12.00;99.90;;;;;;5090787;28;20047;-71
2023/06/06 00:49:30;;;;;;;13.60;10.10;;;12.00;99.90;;;;;;5086869;28;20055;-70
2023/06/06 00:51:56;;;;;;;13.63;9.68;;;12.00;99.90;;;;;;5064621;28;20093;-71
2023/06/06 00:54:22;;;;;;;11.20;9.03;;;12.00;99.90;;;;;;5068086;28;20177;-71
2023/06/06 00:56:50;;;;;;;12.13;9.52;;;12.00;99.90;;;;;;5090097;28;20294;-71
2023/06/06 00:59:16;;;;;;;13.23;9.30;;;12.00;99.90;;;;;;5073288;28;20052;-71
2023/06/06 01:01:43;;;;;;;11.57;9.38;;;12.00;99.90;;;;;;5081053;28;20044;-71
2023/06/06 01:04:10;;;;;;;13.05;9.48;;;12.00;99.90;;;;;;5062800;28;20101;-71
2023/06/06 01:06:37;;;;;;;15.18;9.45;;;12.00;99.90;;;;;;5076344;28;20548;-70
2023/06/06 01:09:05;;;;;;;13.25;10.00;;;12.00;99.90;;;;;;5092980;28;20121;-71
2023/06/06 01:12:12;;;;;;;14.43;9.75;;;12.00;99.90;;;;;;5110909;27;20047;-70
2023/06/06 01:14:57;;;;;;;14.65;9.82;;;12.00;99.90;;;;;;5065426;28;20048;-71
2023/06/06 01:17:27;;;;;;;12.73;8.98;;;12.00;99.90;;;;;;5104135;27;20056;-70
2023/06/06 01:19:54;;;;;;;12.88;9.50;;;12.00;99.90;;;;;;5070565;28;20404;-70
2023/06/06 01:22:22;;;;;;;15.05;9.77;;;12.00;99.90;;;;;;5073002;28;20083;-71
2023/06/06 01:24:52;;;;;;;;;;;11.90;99.90;;;;;;5091414;28;20047;-71
2023/06/06 01:27:18;;;;;;;14.90;9.82;;;11.90;99.90;;;;;;5093096;28;19928;-70
2023/06/06 01:29:43;;;;;;;15.63;10.82;;;11.90;99.90;;;;;;5094535;28;20102;-71
2023/06/06 01:32:29;;;;;;;14.75;10.02;;;11.90;99.90;;;;;;5087047;28;20690;-70
2023/06/06 01:35:14;;;;;;;11.77;9.50;;;11.90;99.90;;;;;;5103592;27;20039;-71
2023/06/06 01:38:16;;;;;;;14.80;9.82;;;11.90;99.90;;;;;;5090509;28;20058;-70
2023/06/06 01:40:44;;;;;;;15.32;10.60;;;11.90;99.90;;;;;;5068816;28;20063;-70
2023/06/06 01:43:10;;;;;;;13.63;10.52;;;11.80;99.90;;;;;;5091659;28;20054;-72
2023/06/06 01:45:38;;;;;;;16.90;10.80;;;11.80;99.90;;;;;;5062061;28;20086;-70
2023/06/06 01:48:04;;;;;;;13.43;9.50;;;11.80;99.90;;;;;;5070132;28;20475;-69
2023/06/06 01:50:32;;;;;;;12.88;9.85;;;11.70;99.90;;;;;;5087167;28;20083;-71
2023/06/06 01:52:57;;;;;;;;;;;11.70;99.90;;;;;;5088706;28;20048;-71
2023/06/06 01:55:23;;;;;;;13.00;9.68;;;11.60;99.90;;;;;;5098102;27;19976;-70
2023/06/06 01:57:49;;;;;;;15.05;10.40;;;11.60;99.90;;;;;;5091519;28;20062;-70
2023/06/06 02:00:16;;;;;;;14.30;9.52;;;11.60;99.90;;;;;;5106502;27;20036;-71
2023/06/06 02:02:42;;;;;;;13.70;10.23;;;11.60;99.90;;;;;;5101362;27;20044;-70
2023/06/06 02:05:07;;;;;;;15.60;10.20;;;11.60;99.90;;;;;;5065223;28;20059;-71
2023/06/06 02:07:34;;;;;;;14.00;10.73;;;11.60;99.90;;;;;;5069700;28;20036;-71
2023/06/06 02:10:03;;;;;;;16.05;11.35;;;11.60;99.90;;;;;;5092397;28;20490;-70
2023/06/06 02:12:28;;;;;;;13.15;9.93;;;11.50;99.90;;;;;;5102661;27;20750;-71
2023/06/06 02:14:54;;;;;;;14.68;10.60;;;11.50;99.90;;;;;;5091135;28;20130;-70
2023/06/06 02:17:20;;;;;;;15.57;10.52;;;11.50;99.90;;;;;;5072594;28;20159;-70
2023/06/06 02:19:46;;;;;;;15.95;10.35;;;11.50;99.90;;;;;;5098136;27;20063;-71
2023/06/06 02:22:13;;;;;;;11.68;9.95;;;11.40;99.90;;;;;;5068664;28;20131;-70
2023/06/06 02:24:40;;;;;;;14.68;10.18;;;11.50;99.90;;;;;;5107527;27;20048;-71
2023/06/06 02:27:09;;;;;;;13.13;10.43;;;11.40;99.90;;;;;;5092903;28;20048;-70
2023/06/06 02:29:36;;;;;;;14.27;10.23;;;11.50;99.90;;;;;;5095999;28;20265;-72
2023/06/06 02:32:03;;;;;;;14.70;10.20;;;11.40;99.90;;;;;;5108157;27;20048;-69
2023/06/06 02:34:29;;;;;;;16.00;10.40;;;11.50;99.90;;;;;;5112368;27;20051;-70
2023/06/06 02:36:56;;;;;;;13.15;10.10;;;11.50;99.90;;;;;;5091699;28;20747;-70
2023/06/06 02:39:22;;;;;;;15.15;9.88;;;11.50;99.90;;;;;;5090656;28;20081;-71
2023/06/06 02:41:50;;;;;;;15.60;10.75;;;11.50;99.90;;;;;;5076552;28;21135;-70
2023/06/06 02:44:17;;;;;;;16.65;10.13;;;11.50;99.90;;;;;;5093856;28;20439;-72
2023/06/06 02:46:43;;;;;;;16.35;10.88;;;11.50;99.90;;;;;;5103929;27;20047;-70
2023/06/06 02:49:09;;;;;;;15.18;10.95;;;11.40;99.90;;;;;;5090950;28;20062;-72
2023/06/06 02:51:36;;;;;;;16.77;10.80;;;11.40;99.90;;;;;;5064103;28;20055;-70
2023/06/06 02:54:02;;;;;;;14.48;10.38;;;11.40;99.90;;;;;;5070871;28;20054;-70
2023/06/06 02:56:28;;;;;;;16.92;11.32;;;11.30;99.90;;;;;;5088396;28;20036;-71
2023/06/06 02:58:54;;;;;;;15.80;10.63;;;11.30;99.90;;;;;;5063783;28;20114;-68
2023/06/06 03:01:22;;;;;;;16.33;11.48;;;11.30;99.90;;;;;;5102252;27;20047;-70
2023/06/06 03:03:48;;;;;;;18.50;11.30;;;11.30;99.90;;;;;;5087141;28;20048;-71
2023/06/06 03:06:18;;;;;;;15.98;10.75;;;11.30;99.90;;;;;;5074160;28;20044;-70
2023/06/06 03:08:44;;;;;;;17.58;10.68;;;11.30;99.90;;;;;;5074569;28;20118;-70
2023/06/06 03:11:11;;;;;;;15.52;10.38;;;11.30;99.90;;;;;;5065993;28;20052;-70
2023/06/06 03:13:37;;;;;;;13.27;10.38;;;11.30;99.90;;;;;;5090756;28;20036;-70
2023/06/06 03:16:03;;;;;;;16.30;11.45;;;11.30;99.90;;;;;;5103067;27;20040;-69
2023/06/06 03:18:29;;;;;;;14.13;10.75;;;11.30;99.90;;;;;;5088567;28;20043;-70
2023/06/06 03:20:54;;;;;;;16.83;11.45;;;11.30;99.90;;;;;;5088210;28;20153;-69
2023/06/06 03:23:21;;;;;;;17.67;10.93;;;11.30;99.90;;;;;;5069837;28;20036;-70
2023/06/06 03:25:51;;;;;;;19.80;12.03;;;11.30;99.90;;;;;;5109102;27;20035;-70
2023/06/06 03:28:18;;;;;;;15.90;11.10;;;11.30;99.90;;;;;;5084188;28;20031;-70
2023/06/06 03:30:48;;;;;;;18.65;11.00;;;11.30;99.90;;;;;;5090935;28;20096;-69
2023/06/06 03:33:14;;;;;;;15.75;11.30;;;11.30;99.90;;;;;;5088216;28;21913;-71
2023/06/06 03:35:40;;;;;;;18.15;11.90;;;11.30;99.90;;;;;;5105318;27;20052;-70
2023/06/06 03:38:06;;;;;;;17.90;10.68;;;11.20;99.90;;;;;;5088500;28;20124;-70
2023/06/06 03:40:32;;;;;;;15.88;11.93;;;11.20;99.90;;;;;;5092101;28;20046;-69
2023/06/06 03:43:00;;;;;;;18.27;11.35;;;11.30;99.90;;;;;;5091426;28;20039;-70
2023/06/06 03:45:25;;;;;;;17.45;11.90;;;11.30;99.90;;;;;;5080300;28;20052;-70
2023/06/06 03:47:51;;;;;;;18.48;12.02;;;11.30;99.90;;;;;;5084928;28;20532;-70
2023/06/06 03:50:21;;;;;;;17.25;11.25;;;11.30;99.90;;;;;;5083120;28;20044;-69
2023/06/06 03:52:47;;;;;;;17.27;11.23;;;11.30;99.90;;;;;;5084965;28;20406;-70
2023/06/06 03:55:13;;;;;;;19.55;12.32;;;11.30;99.90;;;;;;5094231;28;20043;-71
2023/06/06 03:57:39;;;;;;;18.35;12.05;;;11.30;99.90;;;;;;5084922;28;20509;-70
2023/06/06 04:00:10;;;;;;;15.70;11.50;;;11.30;99.90;;;;;;5087171;28;20040;-69
2023/06/06 04:02:40;;;;;;;18.92;11.65;;;11.40;99.90;;;;;;5094589;28;20429;-69
2023/06/06 04:05:06;;;;;;;14.60;10.75;;;11.30;99.90;;;;;;5084693;28;20173;-70
2023/06/06 04:07:32;;;;;;;17.75;11.93;;;11.40;99.90;;;;;;5072949;28;20108;-70
2023/06/06 04:09:59;;;;;;;16.20;11.55;;;11.30;99.90;;;;;;5091158;28;20057;-69
2023/06/06 04:12:27;;;;;;;18.52;11.00;;;11.30;99.90;;;;;;5093010;28;20523;-69
2023/06/06 04:14:53;;;;;;;17.63;11.50;;;11.30;99.90;;;;;;5073844;28;20487;-70
2023/06/06 04:17:21;;;;;;;17.45;11.38;;;11.30;99.90;;;;;;5069634;28;20051;-70
2023/06/06 04:19:49;;;;;;;20.88;11.98;;;11.40;99.90;;;;;;5094723;28;20071;-71
2023/06/06 04:22:15;;;;;;;15.98;11.30;;;11.40;99.90;;;;;;5086745;28;20070;-70
2023/06/06 04:24:41;;;;;;;18.13;11.27;;;11.40;99.90;;;;;;5090583;28;20691;-68
2023/06/06 04:27:07;;;;;;;18.88;11.93;;;11.50;99.90;;;;;;5085978;28;20090;-68
2023/06/06 04:29:33;;;;;;;20.77;11.65;;;11.50;99.90;;;;;;5093691;28;20046;-70
2023/06/06 04:32:03;;;;;;;18.60;11.93;;;11.50;99.90;;;;;;5076418;28;20048;-70
2023/06/06 04:34:33;;;;;;;17.27;12.02;;;11.50;99.90;;;;;;5089920;28;20081;-70
2023/06/06 04:37:03;;;;;;;17.77;12.02;;;11.50;99.90;;;;;;5069251;28;20140;-70
2023/06/06 04:39:31;;;;;;;21.50;12.43;;;11.60;99.90;;;;;;5084989;28;20122;-69
2023/06/06 04:42:01;;;;;;;18.65;11.75;;;11.60;99.90;;;;;;5097586;27;20549;-70
2023/06/06 04:44:27;;;;;;;16.45;11.05;;;11.60;99.90;;;;;;5088332;28;20944;-70
2023/06/06 04:47:00;;;;;;;17.75;11.68;;;11.60;99.90;;;;;;5088311;28;20042;-70
2023/06/06 04:49:35;;;;;;;15.77;11.88;;;11.70;99.90;;;;;;5091641;28;20055;-70
2023/06/06 04:52:08;;;;;;;16.17;10.80;;;11.70;99.90;;;;;;5075299;28;20050;-70
2023/06/06 04:54:37;;;;;;;15.05;12.13;;;11.70;99.90;;;;;;5081654;28;20063;-69
2023/06/06 04:57:05;;;;;;;17.05;11.70;;;11.80;99.90;;;;;;5073704;28;20050;-69
2023/06/06 04:59:32;;;;;;;18.52;11.77;;;11.80;99.90;;;;;;5106835;27;20395;-69
2023/06/06 05:01:59;;;;;;;15.80;12.40;;;11.80;99.90;;;;;;5071029;28;20051;-72
2023/06/06 05:04:25;;;;;;;17.25;12.77;;;11.90;99.90;;;;;;5093695;28;20047;-70
2023/06/06 05:06:51;;;;;;;18.35;11.90;;;11.90;99.90;;;;;;5094388;28;20103;-70
2023/06/06 05:09:17;;;;;;;15.73;11.93;;;12.00;99.90;;;;;;5090181;28;20051;-68
2023/06/06 05:11:48;;;;;;;17.45;11.20;;;12.00;99.90;;;;;;5089189;28;20055;-69
2023/06/06 05:14:14;;;;;;;21.23;12.50;;;12.10;99.90;;;;;;5091314;28;20050;-70
2023/06/06 05:16:40;;;;;;;16.73;11.80;;;12.10;99.90;;;;;;5072490;28;20406;-69
2023/06/06 05:19:06;;;;;;;19.35;11.75;;;12.20;99.90;;;;;;5068175;28;20079;-70
2023/06/06 05:21:33;;;;;;;18.48;12.05;;;12.20;99.90;;;;;;5105953;27;20093;-69
2023/06/06 05:24:02;;;;;;;18.88;11.35;;;12.20;99.90;;;;;;5088184;28;20084;-69
2023/06/06 05:26:30;;;;;;;17.30;10.85;;;12.30;99.90;;;;;;5097310;28;20043;-68
2023/06/06 05:28:55;;;;;;;;;;;12.30;99.90;;;;;;5092534;27;20544;-70
2023/06/06 05:31:21;;;;;;;18.35;12.38;;;12.40;99.90;;;;;;5063933;28;19924;-72
2023/06/06 05:33:47;;;;;;;17.02;11.60;;;12.40;99.90;;;;;;5091545;28;22369;-69
2023/06/06 05:36:13;;;;;;;15.43;11.85;;;12.50;99.90;;;;;;5090779;28;20055;-69
2023/06/06 05:38:42;;;;;;;18.98;12.35;;;12.60;99.90;;;;;;5075567;28;20038;-70
2023/06/06 05:41:07;;;;;;;19.92;12.02;;;12.60;99.90;;;;;;5092773;28;20043;-69
2023/06/06 05:43:33;;;;;;;18.02;12.13;;;12.60;99.90;;;;;;5095694;28;20091;-70
2023/06/06 05:46:01;;;;;;;17.50;12.45;;;12.70;99.90;;;;;;5085164;28;20039;-69
2023/06/06 05:48:27;;;;;;;15.35;11.88;;;12.70;99.90;;;;;;5081935;28;20059;-69
2023/06/06 05:50:53;;;;;;;17.60;11.45;;;12.70;99.90;;;;;;5089863;28;20505;-71
2023/06/06 05:53:19;;;;;;;18.58;10.65;;;12.70;99.90;;;;;;5110664;27;20083;-71
2023/06/06 05:55:45;;;;;;;18.27;10.63;;;12.80;99.90;;;;;;5068425;28;22020;-68
2023/06/06 05:58:10;;;;;;;15.68;10.60;;;12.90;99.90;;;;;;5092017;28;20070;-69
2023/06/06 06:00:36;;;;;;;17.42;9.80;;;13.00;99.90;;;;;;5073600;28;20040;-68
2023/06/06 06:03:02;;;;;;;16.00;9.38;;;13.10;99.90;;;;;;5087889;28;20040;-68
2023/06/06 06:05:29;;;;;;;15.65;8.80;;;13.10;99.90;;;;;;5082383;28;20055;-69
2023/06/06 06:08:00;;;;;;;17.25;9.27;;;13.20;99.90;;;;;;5090510;28;20058;-69
2023/06/06 06:10:34;;;;;;;15.45;8.27;;;13.30;99.90;;;;;;5064429;28;20116;-69
2023/06/06 06:13:01;;;;;;;16.88;7.75;;;13.30;99.90;;;;;;5091167;28;20063;-71
2023/06/06 06:15:29;;;;;;;16.65;8.32;;;13.40;99.90;;;;;;5081954;28;20134;-72
2023/06/06 06:17:57;;;;;;;16.73;7.95;;;13.40;99.90;;;;;;5062398;28;20100;-71
2023/06/06 06:20:23;;;;;;;15.93;8.13;;;13.40;99.90;;;;;;5086717;28;20052;-70
2023/06/06 06:22:49;;;;;;;16.67;8.43;;;13.50;99.90;;;;;;5060850;28;20207;-71
2023/06/06 06:25:19;;;;;;;18.45;8.52;;;13.60;99.90;;;;;;5067361;28;20047;-70
2023/06/06 06:27:46;;;;;;;16.60;8.43;;;13.60;99.90;;;;;;5070444;28;20050;-70
2023/06/06 06:30:13;;;;;;;13.33;7.73;;;13.60;99.90;;;;;;5079047;28;20761;-70
2023/06/06 06:32:41;;;;;;;16.45;8.10;;;13.70;99.90;;;;;;5084375;28;20078;-71
2023/06/06 06:35:08;;;;;;;17.67;8.45;;;13.80;99.90;;;;;;5089976;28;20572;-70
2023/06/06 06:37:37;;;;;;;15.38;8.30;;;13.90;99.90;;;;;;5088201;28;20043;-70
2023/06/06 06:40:09;;;;;;;13.70;8.05;;;14.00;99.90;;;;;;5072804;28;20552;-70
2023/06/06 06:42:39;;;;;;;14.43;7.55;;;14.00;99.90;;;;;;5085932;27;20087;-70
2023/06/06 06:45:07;;;;;;;14.65;7.15;;;14.00;99.90;;;;;;5096207;27;20039;-68
2023/06/06 06:47:33;;;;;;;15.60;7.60;;;14.10;99.90;;;;;;5089029;28;20105;-70
2023/06/06 06:50:02;;;;;;;14.57;7.82;;;14.20;99.90;;;;;;5091888;28;20055;-70
2023/06/06 06:52:27;;;;;;;13.70;7.75;;;14.30;99.90;;;;;;5067402;28;20047;-71
2023/06/06 06:54:57;;;;;;;15.68;7.50;;;14.40;99.90;;;;;;5089016;27;20054;-70
2023/06/06 06:57:26;;;;;;;12.35;6.97;;;14.50;99.90;;;;;;5086560;28;20453;-70
2023/06/06 06:59:53;;;;;;;13.88;7.50;;;14.50;99.90;;;;;;5093777;28;20050;-70
2023/06/06 07:02:20;;;;;;;15.00;7.40;;;14.60;99.90;;;;;;5093427;28;20051;-70
2023/06/06 07:04:47;;;;;;;15.68;7.70;;;14.70;99.90;;;;;;5063045;28;20087;-70
2023/06/06 07:07:16;;;;;;;15.60;7.10;;;14.70;99.90;;;;;;5070315;28;20043;-72
2023/06/06 07:09:45;;;;;;;13.65;7.00;;;14.80;99.90;;;;;;5089799;27;20246;-71
2023/06/06 07:12:11;;;;;;;15.73;7.45;;;14.80;99.90;;;;;;5072370;28;20055;-70
2023/06/06 07:14:38;;;;;;;12.75;7.50;;;14.90;99.90;;;;;;5083751;28;20027;-72
2023/06/06 07:17:04;;;;;;;15.52;7.28;;;15.00;99.90;;;;;;5092525;28;20040;-69
2023/06/06 07:19:30;;;;;;;14.18;7.07;;;15.10;99.90;;;;;;5071884;28;20039;-73
2023/06/06 07:21:56;;;;;;;14.57;7.43;;;15.10;99.90;;;;;;5088284;28;20048;-73
2023/06/06 07:24:25;;;;;;;13.15;7.22;;;15.20;99.90;;;;;;5093423;28;20069;-71
2023/06/06 07:26:51;;;;;;;14.82;6.88;;;15.30;99.90;;;;;;5079375;28;20039;-73
2023/06/06 07:29:17;;;;;;;15.52;7.93;;;15.40;99.90;;;;;;5073800;28;20055;-73
2023/06/06 07:31:43;;;;;;;14.93;7.28;;;15.50;99.90;;;;;;5110084;27;20494;-73
2023/06/06 07:34:09;;;;;;;14.85;7.07;;;15.60;99.90;;;;;;5074750;28;20056;-73
2023/06/06 07:36:38;;;;;;;15.52;6.88;;;15.60;99.90;;;;;;5069162;28;20047;-72
2023/06/06 07:39:04;;;;;;;12.63;7.07;;;15.70;99.90;;;;;;5094363;28;20058;-71
2023/06/06 07:41:30;;;;;;;13.68;6.53;;;15.80;99.90;;;;;;5076899;28;20055;-71
2023/06/06 07:43:59;;;;;;;14.90;6.90;;;15.80;99.90;;;;;;5095266;28;20395;-72
2023/06/06 07:46:25;;;;;;;13.60;6.88;;;15.90;99.90;;;;;;5070108;28;20039;-72
2023/06/06 07:48:51;;;;;;;12.10;6.65;;;16.00;99.90;;;;;;5091043;28;21413;-71
2023/06/06 07:51:18;;;;;;;10.93;6.28;;;16.10;99.90;;;;;;5073433;28;21816;-71
2023/06/06 07:53:44;;;;;;;15.52;6.97;;;16.20;99.90;;;;;;5072255;28;20051;-72
2023/06/06 07:56:13;;;;;;;12.13;6.25;;;16.20;99.90;;;;;;5094824;28;20444;-70
2023/06/06 07:58:53;;;;;;;11.13;6.07;;;16.30;99.90;;;;;;5095626;28;20043;-71
2023/06/06 08:01:23;;;;;;;10.93;6.15;;;16.40;99.90;;;;;;5091867;28;20048;-72
2023/06/06 08:03:54;;;;;;;11.30;6.32;;;16.50;99.90;;;;;;5072854;28;20051;-72
2023/06/06 08:06:27;;;;;;;12.10;6.25;;;16.50;99.90;;;;;;5069602;28;20059;-71
2023/06/06 08:08:53;;;;;;;13.52;6.85;;;16.60;99.90;;;;;;5083339;28;20082;-72
2023/06/06 08:11:19;;;;;;;13.98;7.32;;;16.60;99.90;;;;;;5068237;28;20130;-73
2023/06/06 08:13:48;;;;;;;16.08;6.20;;;16.60;99.90;;;;;;5094032;28;20402;-74
2023/06/06 08:16:13;;;;;;;11.00;6.90;;;16.70;99.90;;;;;;5094853;28;20124;-73
2023/06/06 08:18:39;;;;;;;14.40;6.80;;;16.80;99.90;;;;;;5070294;28;20156;-72
2023/06/06 08:21:05;;;;;;;9.50;6.45;;;16.80;99.90;;;;;;5103051;28;20122;-72
2023/06/06 08:23:31;;;;;;;13.18;7.57;;;16.90;99.90;;;;;;5073456;28;20048;-73
2023/06/06 08:25:57;;;;;;;14.18;7.00;;;16.90;99.90;;;;;;5074581;28;20044;-74
2023/06/06 08:28:23;;;;;;;11.30;7.30;;;16.90;99.90;;;;;;5090815;28;20040;-72
2023/06/06 08:30:52;;;;;;;13.32;6.90;;;17.00;99.90;;;;;;5071619;28;20314;-73
2023/06/06 08:33:19;;;;;;;13.20;6.53;;;17.10;99.90;;;;;;5062349;28;20047;-74
2023/06/06 08:35:46;;;;;;;10.40;6.85;;;17.20;99.90;;;;;;5074640;28;20055;-73
2023/06/06 08:38:12;;;;;;;12.65;7.32;;;17.20;99.90;;;;;;5072478;28;20047;-72
2023/06/06 08:40:39;;;;;;;13.02;7.20;;;17.30;99.90;;;;;;5095170;28;20054;-73
2023/06/06 08:43:10;;;;;;;12.20;7.60;;;17.50;99.90;;;;;;5078254;28;20104;-76
2023/06/06 08:45:40;;;;;;;13.80;8.18;;;17.60;99.90;;;;;;5077359;28;20126;-75
2023/06/06 08:48:07;;;;;;;12.48;7.78;;;17.70;99.90;;;;;;5104119;28;20544;-74
2023/06/06 08:50:34;;;;;;;11.68;8.00;;;17.70;99.90;;;;;;5093871;28;20514;-74
2023/06/06 08:53:04;;;;;;;15.20;8.17;;;17.70;99.90;;;;;;5097334;28;20506;-76
2023/06/06 08:55:35;;;;;;;14.57;8.40;;;17.80;99.90;;;;;;5072530;28;20185;-75
2023/06/06 08:58:03;;;;;;;13.57;8.80;;;17.80;99.90;;;;;;5089617;28;20052;-75
2023/06/06 09:00:29;;;;;;;14.73;8.35;;;17.90;99.90;;;;;;5095908;28;20070;-75
2023/06/06 09:02:56;;;;;;;12.82;8.05;;;17.90;99.90;;;;;;5112230;27;20482;-74
2023/06/06 09:05:22;;;;;;;11.35;8.90;;;18.00;99.90;;;;;;5101107;28;20043;-75
2023/06/06 09:07:52;;;;;;;13.38;8.82;;;18.10;99.90;;;;;;5083924;28;20058;-73
2023/06/06 09:10:19;;;;;;;15.20;8.13;;;18.10;99.90;;;;;;5081732;28;20409;-72
2023/06/06 09:12:48;;;;;;;14.63;8.15;;;18.20;99.90;;;;;;5100693;28;20043;-73
2023/06/06 09:15:14;;;;;;;15.13;9.20;;;18.30;99.90;;;;;;5081284;28;20083;-73
2023/06/06 09:17:43;;;;;;;14.73;8.73;;;18.40;99.90;;;;;;5088382;28;20040;-75
2023/06/06 09:20:16;;;;;;;44.60;12.68;;;18.40;99.90;;;;;;5071608;28;20138;-77
2023/06/06 09:22:44;;;;;;;41.65;12.48;;;18.50;99.90;;;;;;5112156;27;20039;-75
2023/06/06 09:25:22;;;;;;;35.67;12.85;;;18.60;99.90;;;;;;5100349;27;20514;-76
2023/06/06 09:27:53;;;;;;;25.27;9.85;;;18.70;99.90;;;;;;5065646;28;20070;-78
2023/06/06 09:30:24;;;;;;;14.75;9.00;;;18.70;99.90;;;;;;5074647;28;20051;-76
2023/06/06 09:32:53;;;;;;;14.38;8.48;;;18.70;99.90;;;;;;5094405;28;20051;-77
2023/06/06 09:35:20;;;;;;;12.55;8.50;;;18.70;99.90;;;;;;5079166;28;20054;-76
2023/06/06 09:37:46;;;;;;;13.90;7.90;;;18.80;99.90;;;;;;5072912;28;20799;-75
2023/06/06 09:40:13;;;;;;;13.48;8.57;;;18.80;99.90;;;;;;5089759;28;20093;-74
2023/06/06 09:42:41;;;;;;;13.65;7.75;;;18.90;99.90;;;;;;5067486;28;20046;-78
2023/06/06 09:45:19;;;;;;;14.18;8.77;;;19.10;99.90;;;;;;5073334;28;20059;-76
2023/06/06 09:47:45;;;;;;;;;;;19.10;99.90;;;;;;5086401;28;20100;-77
2023/06/06 09:50:13;;;;;;;13.13;7.57;;;19.20;99.90;;;;;;5073575;28;19961;-74
2023/06/06 09:52:40;;;;;;;13.48;7.25;;;19.20;99.90;;;;;;5093348;28;20054;-73
2023/06/06 09:55:16;;;;;;;9.40;7.07;;;19.30;99.90;;;;;;5100025;28;20043;-72
2023/06/06 09:57:44;;;;;;;14.23;7.87;;;19.40;99.90;;;;;;5082265;28;20075;-74
2023/06/06 10:00:14;;;;;;;12.43;7.68;;;19.40;99.90;;;;;;5080424;28;20180;-72
2023/06/06 10:02:43;;;;;;;11.13;6.75;;;19.50;99.90;;;;;;5087492;28;20032;-72
2023/06/06 10:05:11;;;;;;;11.27;7.75;;;19.60;99.90;;;;;;5077329;28;20055;-73
2023/06/06 10:07:46;;;;;;;11.00;7.53;;;19.70;99.90;;;;;;5085065;28;20462;-71
2023/06/06 10:10:14;;;;;;;12.65;8.13;;;19.70;99.90;;;;;;5094953;28;20048;-72
2023/06/06 10:12:41;;;;;;;14.05;7.47;;;19.80;99.90;;;;;;5075334;28;20095;-72
2023/06/06 10:15:11;;;;;;;11.80;7.78;;;19.80;99.90;;;;;;5078220;28;20059;-73
2023/06/06 10:17:40;;;;;;;13.55;8.23;;;19.90;99.90;;;;;;5076428;28;20047;-73
2023/06/06 10:20:09;;;;;;;15.35;8.70;;;19.90;99.90;;;;;;5104343;27;20040;-73
2023/06/06 10:22:36;;;;;;;15.75;8.45;;;20.00;99.90;;;;;;5098925;28;20052;-72
2023/06/06 10:25:06;;;;;;;11.60;7.47;;;20.00;99.90;;;;;;5091234;28;20398;-74
2023/06/06 10:28:06;;;;;;;12.30;7.45;;;20.10;99.90;;;;;;5091563;28;20062;-74
2023/06/06 10:30:36;;;;;;;10.40;7.82;;;20.10;99.90;;;;;;5095411;28;20094;-73
2023/06/06 10:33:27;;;;;;;12.73;7.63;;;20.20;99.90;;;;;;5081375;28;20532;-74
2023/06/06 10:35:58;;;;;;;12.02;7.50;;;20.20;99.90;;;;;;5066920;28;20182;-74
2023/06/06 10:38:24;;;;;;;11.18;7.25;;;20.30;99.90;;;;;;5067438;28;20235;-74
2023/06/06 10:40:52;;;;;;;11.68;7.10;;;20.40;99.90;;;;;;5096822;28;20498;-75
2023/06/06 10:43:34;;;;;;;12.55;7.80;;;20.50;99.90;;;;;;5068856;28;20494;-76
2023/06/06 10:46:03;;;;;;;13.82;7.63;;;20.60;99.90;;;;;;5068981;28;20069;-72
2023/06/06 10:48:41;;;;;;;12.18;7.60;;;20.60;99.90;;;;;;5069146;28;22341;-72
2023/06/06 10:51:24;;;;;;;12.98;7.03;;;20.70;99.90;;;;;;5087472;28;20110;-74
2023/06/06 10:54:17;;;;;;;18.85;7.65;;;20.70;99.90;;;;;;5069890;28;20044;-75
2023/06/06 10:56:56;;;;;;;16.08;7.47;;;20.80;99.90;;;;;;5096378;28;20040;-73
2023/06/06 10:59:31;;;;;;;15.52;7.70;;;20.90;99.90;;;;;;5074393;28;20047;-74
2023/06/06 11:01:58;;;;;;;12.98;8.15;;;21.00;99.90;;;;;;5097935;28;20050;-74
2023/06/06 11:04:27;;;;;;;13.03;7.50;;;21.10;99.90;;;;;;5098118;28;20543;-74
2023/06/06 11:07:00;;;;;;;10.07;7.10;;;21.20;99.90;;;;;;5091927;28;20114;-73
2023/06/06 11:09:31;;;;;;;15.20;7.75;;;21.30;99.90;;;;;;5080650;28;20057;-72
2023/06/06 11:12:15;;;;;;;14.95;6.60;;;21.30;99.90;;;;;;5079567;28;20043;-73
2023/06/06 11:15:07;;;;;;;12.10;6.53;;;21.30;99.90;;;;;;5066608;28;20517;-73
2023/06/06 11:17:55;;;;;;;11.35;6.72;;;21.40;99.90;;;;;;5094903;28;20043;-73
2023/06/06 11:20:22;;;;;;;12.30;7.03;;;21.40;99.90;;;;;;5078504;28;20490;-73
2023/06/06 11:23:05;;;;;;;12.25;7.28;;;21.40;99.90;;;;;;5097605;28;20887;-74
2023/06/06 11:25:35;;;;;;;15.35;8.10;;;21.50;99.90;;;;;;5096725;28;20475;-72
2023/06/06 11:28:01;;;;;;;12.07;7.40;;;21.60;99.90;;;;;;5098420;28;20046;-73
2023/06/06 11:30:35;;;;;;;12.10;7.72;;;21.60;99.90;;;;;;5079697;28;20093;-74
2023/06/06 11:33:01;;;;;;;8.90;6.75;;;21.70;99.80;;;;;;5094847;28;20050;-74
2023/06/06 11:35:32;;;;;;;11.53;6.57;;;21.70;99.80;;;;;;5088295;28;21258;-74
2023/06/06 11:37:58;;;;;;;12.70;6.38;;;21.80;99.90;;;;;;5073546;28;21104;-74
2023/06/06 11:40:28;;;;;;;9.57;6.67;;;21.80;99.80;;;;;;5080615;28;20051;-74
2023/06/06 11:42:54;;;;;;;10.57;7.15;;;21.90;99.50;;;;;;5099073;28;20074;-73
2023/06/06 11:45:23;;;;;;;10.75;7.95;;;21.90;99.40;;;;;;5071180;28;20647;-72
2023/06/06 11:47:51;;;;;;;13.30;7.45;;;21.90;99.30;;;;;;5097159;28;20075;-72
2023/06/06 11:50:27;;;;;;;12.45;7.40;;;22.00;99.10;;;;;;5069717;28;22316;-72
2023/06/06 11:52:53;;;;;;;11.80;7.05;;;22.00;98.90;;;;;;5074081;28;20047;-72
2023/06/06 11:55:18;;;;;;;17.70;7.00;;;22.20;99.00;;;;;;5077932;28;20050;-75
2023/06/06 11:57:44;;;;;;;13.43;6.97;;;22.20;98.70;;;;;;5097978;28;20045;-74
2023/06/06 12:00:14;;;;;;;14.05;7.20;;;22.20;98.60;;;;;;5097648;28;20047;-73
2023/06/06 12:02:40;;;;;;;38.35;10.18;;;22.30;98.40;;;;;;5067652;28;20271;-73
2023/06/06 12:05:24;;;;;;;103.03;13.10;;;22.30;98.20;;;;;;5078756;28;20035;-74
2023/06/06 12:07:50;;;;;;;12.05;7.22;;;22.30;98.20;;;;;;5075557;28;20094;-73
2023/06/06 12:10:27;;;;;;;11.25;7.40;;;22.30;98.00;;;;;;5080220;28;20036;-73
2023/06/06 12:12:55;;;;;;;11.60;6.20;;;22.40;97.90;;;;;;5098098;28;20051;-73
2023/06/06 12:15:22;;;;;;;15.38;7.05;;;22.50;98.10;;;;;;5095653;28;20058;-73
2023/06/06 12:17:48;;;;;;;16.27;7.22;;;22.60;98.10;;;;;;5114535;28;20886;-74
2023/06/06 12:20:24;;;;;;;11.43;6.55;;;22.70;98.00;;;;;;5079592;28;20047;-74
2023/06/06 12:22:53;;;;;;;10.40;6.27;;;22.70;97.30;;;;;;5079248;28;20048;-74
2023/06/06 12:25:28;;;;;;;15.23;7.57;;;22.70;97.70;;;;;;5074898;28;20043;-75
2023/06/06 12:27:55;;;;;;;9.35;6.95;;;22.70;97.50;;;;;;5091462;28;20946;-74
2023/06/06 12:30:31;;;;;;;10.25;6.70;;;22.80;97.30;;;;;;5065721;28;20073;-74
2023/06/06 12:32:58;;;;;;;11.02;6.45;;;22.70;97.30;;;;;;5071700;28;20445;-74
2023/06/06 12:35:24;;;;;;;;;;;22.70;97.20;;;;;;5081106;28;20409;-75
2023/06/06 12:37:50;;;;;;;45.53;10.53;;;22.70;97.50;;;;;;5097114;28;19924;-72
2023/06/06 12:40:18;;;;;;;33.97;7.72;;;22.80;97.30;;;;;;5101724;28;20345;-73
2023/06/06 12:42:55;;;;;;;11.75;6.93;;;22.90;97.70;;;;;;5098809;28;20503;-74